Charleston, Maine
Current Conditions -  °F | °C
As of 5:53 PM on Saturday 25 Oct 2014 (Local Time) from KBGR Reporting Station
Broken Clouds Broken Clouds  
Wind Chill: 53°   Ceiling: 25000
Heat Index: 53°   Visibility: 10mi
Dew Point: 39°   Wind: 8mph
Humidity: 59%   Direction: 180°S
Pressure: 29.54"   Gusts: NA
Location:  45.08°N, 69.04°W
Report Text: KBGR 252153Z 18007KT 10SM FEW130 BKN250 12/04 A2954 RMK AO2 SLP004 T01170039
Loading
Personal Weather Stations






























Interactive Weather Map
Tropical Storm Tracking
New forecast layout! Learn more

10-Day Weather Forecast

Advertisements
Track Severe Weather on mobile